sensor_id;sensor_type;location;lat;lon;timestamp;pressure;altitude;pressure_sealevel;temperature;humidity
29825;BME280;16713;52.916;12.834;2023-04-26T00:01:26;100715.63;;;5.72;63.61
29825;BME280;16713;52.916;12.834;2023-04-26T00:03:53;100707.81;;;5.62;63.88
29825;BME280;16713;52.916;12.834;2023-04-26T00:06:22;100706.50;;;5.68;64.20
29825;BME280;16713;52.916;12.834;2023-04-26T00:08:48;100716.09;;;5.66;63.35
29825;BME280;16713;52.916;12.834;2023-04-26T00:11:15;100718.38;;;5.64;63.95
29825;BME280;16713;52.916;12.834;2023-04-26T00:13:42;100716.25;;;5.69;64.07
29825;BME280;16713;52.916;12.834;2023-04-26T00:16:08;100711.19;;;5.59;64.24
29825;BME280;16713;52.916;12.834;2023-04-26T00:18:34;100720.59;;;5.70;64.46
29825;BME280;16713;52.916;12.834;2023-04-26T00:21:01;100710.38;;;5.67;64.57
29825;BME280;16713;52.916;12.834;2023-04-26T00:23:27;100720.28;;;5.72;64.07
29825;BME280;16713;52.916;12.834;2023-04-26T00:25:55;100717.22;;;5.65;64.91
29825;BME280;16713;52.916;12.834;2023-04-26T00:28:22;100717.88;;;5.70;64.46
29825;BME280;16713;52.916;12.834;2023-04-26T00:30:48;100730.19;;;5.85;63.74
29825;BME280;16713;52.916;12.834;2023-04-26T00:33:16;100722.34;;;5.75;63.75
29825;BME280;16713;52.916;12.834;2023-04-26T00:35:42;100718.81;;;5.66;64.68
29825;BME280;16713;52.916;12.834;2023-04-26T00:38:09;100724.75;;;5.68;63.82
29825;BME280;16713;52.916;12.834;2023-04-26T00:40:35;100715.50;;;5.43;64.59
29825;BME280;16713;52.916;12.834;2023-04-26T00:43:02;100721.72;;;5.52;64.89
29825;BME280;16713;52.916;12.834;2023-04-26T00:45:29;100714.19;;;5.58;64.96
29825;BME280;16713;52.916;12.834;2023-04-26T00:47:55;100715.16;;;5.62;64.74
29825;BME280;16713;52.916;12.834;2023-04-26T00:50:22;100713.91;;;5.59;64.52
29825;BME280;16713;52.916;12.834;2023-04-26T00:52:49;100726.34;;;5.52;65.38
29825;BME280;16713;52.916;12.834;2023-04-26T00:55:17;100723.31;;;5.19;64.62
29825;BME280;16713;52.916;12.834;2023-04-26T00:57:44;100727.16;;;5.27;65.34
29825;BME280;16713;52.916;12.834;2023-04-26T01:00:11;100722.19;;;5.46;64.95
29825;BME280;16713;52.916;12.834;2023-04-26T01:02:38;100728.56;;;5.24;64.91
29825;BME280;16713;52.916;12.834;2023-04-26T01:05:05;100729.09;;;5.43;64.49
29825;BME280;16713;52.916;12.834;2023-04-26T01:07:32;100728.91;;;5.31;64.66
29825;BME280;16713;52.916;12.834;2023-04-26T01:09:58;100734.81;;;5.25;65.27
29825;BME280;16713;52.916;12.834;2023-04-26T01:12:25;100734.47;;;5.18;66.03
29825;BME280;16713;52.916;12.834;2023-04-26T01:14:53;100734.50;;;5.26;65.27
29825;BME280;16713;52.916;12.834;2023-04-26T01:17:20;100735.16;;;5.23;65.26
29825;BME280;16713;52.916;12.834;2023-04-26T01:19:47;100737.88;;;5.32;65.67
29825;BME280;16713;52.916;12.834;2023-04-26T01:22:14;100744.09;;;5.32;65.00
29825;BME280;16713;52.916;12.834;2023-04-26T01:24:42;100742.97;;;5.08;65.70
29825;BME280;16713;52.916;12.834;2023-04-26T01:27:09;100743.44;;;5.18;65.43
29825;BME280;16713;52.916;12.834;2023-04-26T01:29:36;100737.66;;;5.03;65.65
29825;BME280;16713;52.916;12.834;2023-04-26T01:32:02;100740.88;;;5.13;66.03
29825;BME280;16713;52.916;12.834;2023-04-26T01:34:29;100738.94;;;5.05;66.60
29825;BME280;16713;52.916;12.834;2023-04-26T01:36:56;100739.63;;;5.19;66.10
29825;BME280;16713;52.916;12.834;2023-04-26T01:39:22;100748.06;;;5.18;65.60
29825;BME280;16713;52.916;12.834;2023-04-26T01:41:48;100745.22;;;5.14;65.41
29825;BME280;16713;52.916;12.834;2023-04-26T01:44:15;100732.22;;;5.03;66.12
29825;BME280;16713;52.916;12.834;2023-04-26T01:46:41;100740.53;;;4.98;65.78
29825;BME280;16713;52.916;12.834;2023-04-26T01:49:08;100741.16;;;4.95;66.81
29825;BME280;16713;52.916;12.834;2023-04-26T01:51:34;100744.41;;;5.14;66.18
29825;BME280;16713;52.916;12.834;2023-04-26T01:54:01;100737.81;;;4.98;65.84
29825;BME280;16713;52.916;12.834;2023-04-26T01:56:28;100741.50;;;4.93;66.88
29825;BME280;16713;52.916;12.834;2023-04-26T01:58:54;100741.31;;;4.89;65.96
29825;BME280;16713;52.916;12.834;2023-04-26T02:01:21;100749.25;;;4.77;67.25
29825;BME280;16713;52.916;12.834;2023-04-26T02:03:48;100742.22;;;4.76;67.39
29825;BME280;16713;52.916;12.834;2023-04-26T02:06:14;100743.53;;;4.87;67.20
29825;BME280;16713;52.916;12.834;2023-04-26T02:08:41;100744.22;;;4.93;66.18
29825;BME280;16713;52.916;12.834;2023-04-26T02:11:07;100745.31;;;4.92;67.01
29825;BME280;16713;52.916;12.834;2023-04-26T02:13:34;100745.47;;;4.96;66.59
29825;BME280;16713;52.916;12.834;2023-04-26T02:16:00;100746.84;;;4.76;66.81
29825;BME280;16713;52.916;12.834;2023-04-26T02:18:27;100744.53;;;4.92;66.60
29825;BME280;16713;52.916;12.834;2023-04-26T02:20:55;100740.81;;;4.87;66.65
29825;BME280;16713;52.916;12.834;2023-04-26T02:23:21;100747.47;;;4.73;66.72
29825;BME280;16713;52.916;12.834;2023-04-26T02:25:49;100744.91;;;4.68;67.65
29825;BME280;16713;52.916;12.834;2023-04-26T02:28:16;100744.75;;;4.64;67.40
29825;BME280;16713;52.916;12.834;2023-04-26T02:30:43;100745.09;;;4.71;67.45
29825;BME280;16713;52.916;12.834;2023-04-26T02:33:10;100745.75;;;4.77;67.49
29825;BME280;16713;52.916;12.834;2023-04-26T02:35:36;100742.22;;;4.76;66.78
29825;BME280;16713;52.916;12.834;2023-04-26T02:38:03;100743.13;;;4.63;67.46
29825;BME280;16713;52.916;12.834;2023-04-26T02:40:30;100741.69;;;4.57;67.30
29825;BME280;16713;52.916;12.834;2023-04-26T02:42:57;100743.31;;;4.67;67.81
29825;BME280;16713;52.916;12.834;2023-04-26T02:45:23;100744.13;;;4.67;67.61
29825;BME280;16713;52.916;12.834;2023-04-26T02:47:50;100737.97;;;4.45;67.94
29825;BME280;16713;52.916;12.834;2023-04-26T02:50:16;100733.91;;;4.42;68.30
29825;BME280;16713;52.916;12.834;2023-04-26T02:52:43;100732.94;;;4.38;67.88
29825;BME280;16713;52.916;12.834;2023-04-26T02:55:09;100733.06;;;4.33;68.43
29825;BME280;16713;52.916;12.834;2023-04-26T02:57:36;100734.19;;;4.32;68.48
29825;BME280;16713;52.916;12.834;2023-04-26T03:00:02;100732.03;;;4.43;68.41
29825;BME280;16713;52.916;12.834;2023-04-26T03:02:30;100733.50;;;4.49;68.00
29825;BME280;16713;52.916;12.834;2023-04-26T03:04:57;100739.63;;;4.63;68.24
29825;BME280;16713;52.916;12.834;2023-04-26T03:07:24;100736.03;;;4.45;68.04
29825;BME280;16713;52.916;12.834;2023-04-26T03:09:51;100734.75;;;4.43;67.88
29825;BME280;16713;52.916;12.834;2023-04-26T03:12:17;100742.44;;;4.49;67.98
29825;BME280;16713;52.916;12.834;2023-04-26T03:14:44;100741.31;;;4.50;68.25
29825;BME280;16713;52.916;12.834;2023-04-26T03:17:10;100749.16;;;4.52;68.39
29825;BME280;16713;52.916;12.834;2023-04-26T03:19:37;100745.63;;;4.43;67.68
29825;BME280;16713;52.916;12.834;2023-04-26T03:22:03;100747.47;;;4.42;68.52
29825;BME280;16713;52.916;12.834;2023-04-26T03:24:30;100746.72;;;4.42;68.49
29825;BME280;16713;52.916;12.834;2023-04-26T03:26:57;100751.88;;;4.52;68.24
29825;BME280;16713;52.916;12.834;2023-04-26T03:29:23;100754.44;;;4.57;68.32
29825;BME280;16713;52.916;12.834;2023-04-26T03:31:49;100751.41;;;4.50;68.46
29825;BME280;16713;52.916;12.834;2023-04-26T03:34:16;100748.38;;;4.29;68.18
29825;BME280;16713;52.916;12.834;2023-04-26T03:36:42;100751.06;;;4.21;68.39
29825;BME280;16713;52.916;12.834;2023-04-26T03:39:09;100750.00;;;4.30;68.49
29825;BME280;16713;52.916;12.834;2023-04-26T03:41:36;100749.38;;;4.33;68.46
29825;BME280;16713;52.916;12.834;2023-04-26T03:44:04;100754.34;;;4.40;68.75
29825;BME280;16713;52.916;12.834;2023-04-26T03:46:31;100748.13;;;4.39;68.15
29825;BME280;16713;52.916;12.834;2023-04-26T03:48:58;100751.78;;;4.35;68.55
29825;BME280;16713;52.916;12.834;2023-04-26T03:51:24;100741.72;;;4.35;68.42
29825;BME280;16713;52.916;12.834;2023-04-26T03:53:53;100753.13;;;4.46;68.96
29825;BME280;16713;52.916;12.834;2023-04-26T03:56:20;100755.09;;;4.32;68.89
29825;BME280;16713;52.916;12.834;2023-04-26T03:58:46;100755.16;;;4.40;68.30
29825;BME280;16713;52.916;12.834;2023-04-26T04:01:13;100754.47;;;4.35;68.51
29825;BME280;16713;52.916;12.834;2023-04-26T04:03:39;100752.22;;;4.28;68.81
29825;BME280;16713;52.916;12.834;2023-04-26T04:06:07;100756.06;;;4.05;69.09
29825;BME280;16713;52.916;12.834;2023-04-26T04:08:33;100760.16;;;4.25;68.91
29825;BME280;16713;52.916;12.834;2023-04-26T04:11:00;100761.91;;;4.21;69.39
29825;BME280;16713;52.916;12.834;2023-04-26T04:13:26;100760.84;;;4.30;68.83
29825;BME280;16713;52.916;12.834;2023-04-26T04:15:53;100762.25;;;4.28;69.16
29825;BME280;16713;52.916;12.834;2023-04-26T04:18:19;100768.00;;;4.26;69.42
29825;BME280;16713;52.916;12.834;2023-04-26T04:20:46;100766.53;;;4.20;68.43
29825;BME280;16713;52.916;12.834;2023-04-26T04:23:12;100766.16;;;4.13;69.30
29825;BME280;16713;52.916;12.834;2023-04-26T04:25:39;100768.00;;;4.26;68.91
29825;BME280;16713;52.916;12.834;2023-04-26T04:28:06;100781.19;;;4.41;69.34
29825;BME280;16713;52.916;12.834;2023-04-26T04:30:33;100779.03;;;4.30;69.19
29825;BME280;16713;52.916;12.834;2023-04-26T04:33:00;100775.16;;;4.44;68.94
29825;BME280;16713;52.916;12.834;2023-04-26T04:35:29;100777.28;;;4.25;68.76
29825;BME280;16713;52.916;12.834;2023-04-26T04:37:59;100777.88;;;4.44;68.48
29825;BME280;16713;52.916;12.834;2023-04-26T04:40:26;100779.78;;;4.44;69.50
29825;BME280;16713;52.916;12.834;2023-04-26T04:42:53;100780.91;;;4.43;67.99
29825;BME280;16713;52.916;12.834;2023-04-26T04:45:20;100782.91;;;4.37;68.55
29825;BME280;16713;52.916;12.834;2023-04-26T04:47:47;100791.00;;;4.51;68.74
29825;BME280;16713;52.916;12.834;2023-04-26T04:50:14;100796.50;;;4.59;69.03
29825;BME280;16713;52.916;12.834;2023-04-26T04:52:41;100795.00;;;4.53;68.11
29825;BME280;16713;52.916;12.834;2023-04-26T04:55:07;100796.38;;;4.64;68.87
29825;BME280;16713;52.916;12.834;2023-04-26T04:57:35;100802.56;;;4.65;69.17
29825;BME280;16713;52.916;12.834;2023-04-26T05:00:02;100794.97;;;4.45;68.44
29825;BME280;16713;52.916;12.834;2023-04-26T05:02:35;100803.44;;;4.43;69.18
29825;BME280;16713;52.916;12.834;2023-04-26T05:05:03;100811.03;;;4.63;68.08
29825;BME280;16713;52.916;12.834;2023-04-26T05:07:31;100802.13;;;4.63;68.71
29825;BME280;16713;52.916;12.834;2023-04-26T05:09:58;100808.56;;;4.75;68.10
29825;BME280;16713;52.916;12.834;2023-04-26T05:12:25;100810.91;;;4.68;68.13
29825;BME280;16713;52.916;12.834;2023-04-26T05:14:52;100807.06;;;4.69;68.31
29825;BME280;16713;52.916;12.834;2023-04-26T05:17:19;100815.63;;;4.93;67.62
29825;BME280;16713;52.916;12.834;2023-04-26T05:19:45;100812.06;;;4.76;68.39
29825;BME280;16713;52.916;12.834;2023-04-26T05:22:12;100821.56;;;4.96;67.69
29825;BME280;16713;52.916;12.834;2023-04-26T05:24:46;100811.47;;;4.48;68.40
29825;BME280;16713;52.916;12.834;2023-04-26T05:27:13;100819.75;;;4.82;68.29
29825;BME280;16713;52.916;12.834;2023-04-26T05:29:40;100816.28;;;4.90;67.64
29825;BME280;16713;52.916;12.834;2023-04-26T05:32:06;100821.25;;;4.97;67.94
29825;BME280;16713;52.916;12.834;2023-04-26T05:34:33;100827.84;;;5.05;67.50
29825;BME280;16713;52.916;12.834;2023-04-26T05:37:00;100820.00;;;4.64;68.95
29825;BME280;16713;52.916;12.834;2023-04-26T05:39:26;100828.94;;;5.04;68.13
29825;BME280;16713;52.916;12.834;2023-04-26T05:41:53;100838.09;;;5.08;68.35
29825;BME280;16713;52.916;12.834;2023-04-26T05:44:19;100836.66;;;5.10;67.16
29825;BME280;16713;52.916;12.834;2023-04-26T05:46:46;100838.50;;;5.32;67.18
29825;BME280;16713;52.916;12.834;2023-04-26T05:49:12;100844.75;;;5.41;66.82
29825;BME280;16713;52.916;12.834;2023-04-26T05:51:39;100845.41;;;5.55;67.17
29825;BME280;16713;52.916;12.834;2023-04-26T05:54:05;100847.50;;;5.66;66.69
29825;BME280;16713;52.916;12.834;2023-04-26T05:56:32;100856.00;;;5.73;66.02
29825;BME280;16713;52.916;12.834;2023-04-26T05:58:59;100857.44;;;5.79;66.89
29825;BME280;16713;52.916;12.834;2023-04-26T06:01:25;100858.44;;;5.83;65.29
29825;BME280;16713;52.916;12.834;2023-04-26T06:03:52;100861.31;;;6.04;65.68
29825;BME280;16713;52.916;12.834;2023-04-26T06:06:24;100875.56;;;6.01;65.45
29825;BME280;16713;52.916;12.834;2023-04-26T06:08:51;100862.75;;;5.93;65.43
29825;BME280;16713;52.916;12.834;2023-04-26T06:11:18;100876.84;;;6.12;65.40
29825;BME280;16713;52.916;12.834;2023-04-26T06:13:44;100857.16;;;6.32;65.43
29825;BME280;16713;52.916;12.834;2023-04-26T06:16:11;100858.59;;;5.95;65.12
29825;BME280;16713;52.916;12.834;2023-04-26T06:18:37;100854.09;;;6.25;65.09
29825;BME280;16713;52.916;12.834;2023-04-26T06:21:04;100863.25;;;6.29;65.86
29825;BME280;16713;52.916;12.834;2023-04-26T06:23:31;100859.88;;;6.32;64.85
29825;BME280;16713;52.916;12.834;2023-04-26T06:25:57;100859.72;;;6.37;65.08
29825;BME280;16713;52.916;12.834;2023-04-26T06:28:24;100863.53;;;6.45;64.71
29825;BME280;16713;52.916;12.834;2023-04-26T06:30:50;100865.91;;;6.63;64.80
29825;BME280;16713;52.916;12.834;2023-04-26T06:33:17;100878.72;;;6.71;64.07
29825;BME280;16713;52.916;12.834;2023-04-26T06:35:43;100873.94;;;6.68;63.04
29825;BME280;16713;52.916;12.834;2023-04-26T06:38:09;100883.03;;;6.72;63.31
29825;BME280;16713;52.916;12.834;2023-04-26T06:40:38;100880.28;;;6.89;62.38
29825;BME280;16713;52.916;12.834;2023-04-26T06:43:04;100876.16;;;6.66;62.97
29825;BME280;16713;52.916;12.834;2023-04-26T06:45:31;100884.75;;;6.94;63.78
29825;BME280;16713;52.916;12.834;2023-04-26T06:47:57;100877.84;;;6.96;62.55
29825;BME280;16713;52.916;12.834;2023-04-26T06:50:26;100887.25;;;7.16;61.64
29825;BME280;16713;52.916;12.834;2023-04-26T06:52:52;100884.66;;;7.19;62.55
29825;BME280;16713;52.916;12.834;2023-04-26T06:55:19;100889.19;;;7.44;61.06
29825;BME280;16713;52.916;12.834;2023-04-26T06:57:46;100889.66;;;7.46;62.63
29825;BME280;16713;52.916;12.834;2023-04-26T07:00:13;100895.13;;;7.46;62.09
29825;BME280;16713;52.916;12.834;2023-04-26T07:02:39;100885.91;;;7.22;61.53
29825;BME280;16713;52.916;12.834;2023-04-26T07:05:07;100896.06;;;7.50;61.07
29825;BME280;16713;52.916;12.834;2023-04-26T07:07:34;100896.88;;;7.71;60.84
29825;BME280;16713;52.916;12.834;2023-04-26T07:10:01;100899.91;;;7.87;60.95
29825;BME280;16713;52.916;12.834;2023-04-26T07:12:28;100903.53;;;7.91;60.42
29825;BME280;16713;52.916;12.834;2023-04-26T07:14:54;100894.81;;;7.98;59.47
29825;BME280;16713;52.916;12.834;2023-04-26T07:17:21;100885.88;;;7.39;60.32
29825;BME280;16713;52.916;12.834;2023-04-26T07:19:47;100892.25;;;7.72;60.45
29825;BME280;16713;52.916;12.834;2023-04-26T07:22:14;100895.59;;;7.77;60.11
29825;BME280;16713;52.916;12.834;2023-04-26T07:24:40;100898.69;;;7.67;60.45
29825;BME280;16713;52.916;12.834;2023-04-26T07:27:07;100905.75;;;7.98;58.82
29825;BME280;16713;52.916;12.834;2023-04-26T07:29:33;100915.94;;;7.89;60.31
29825;BME280;16713;52.916;12.834;2023-04-26T07:32:00;100901.09;;;7.40;59.32
29825;BME280;16713;52.916;12.834;2023-04-26T07:34:26;100918.75;;;8.01;58.50
29825;BME280;16713;52.916;12.834;2023-04-26T07:36:52;100914.28;;;8.17;59.08
29825;BME280;16713;52.916;12.834;2023-04-26T07:39:19;100908.91;;;7.79;59.59
29825;BME280;16713;52.916;12.834;2023-04-26T07:41:45;100915.97;;;8.09;59.52
29825;BME280;16713;52.916;12.834;2023-04-26T07:44:12;100927.16;;;8.37;58.19
29825;BME280;16713;52.916;12.834;2023-04-26T07:46:38;100931.47;;;8.38;58.27
29825;BME280;16713;52.916;12.834;2023-04-26T07:49:05;100931.13;;;8.39;57.38
29825;BME280;16713;52.916;12.834;2023-04-26T07:51:31;100930.91;;;8.65;57.07
29825;BME280;16713;52.916;12.834;2023-04-26T07:53:58;100928.50;;;8.63;58.63
29825;BME280;16713;52.916;12.834;2023-04-26T07:56:25;100933.19;;;8.42;57.49
29825;BME280;16713;52.916;12.834;2023-04-26T07:58:51;100930.63;;;8.78;57.70
29825;BME280;16713;52.916;12.834;2023-04-26T08:01:18;100937.72;;;8.59;58.44
29825;BME280;16713;52.916;12.834;2023-04-26T08:03:44;100933.88;;;8.39;57.88
29825;BME280;16713;52.916;12.834;2023-04-26T08:06:11;100947.78;;;8.67;58.21
29825;BME280;16713;52.916;12.834;2023-04-26T08:08:38;100944.44;;;8.61;58.12
29825;BME280;16713;52.916;12.834;2023-04-26T08:11:10;100946.59;;;8.56;58.80
29825;BME280;16713;52.916;12.834;2023-04-26T08:13:36;100931.53;;;7.88;57.96
29825;BME280;16713;52.916;12.834;2023-04-26T08:16:03;100941.50;;;8.34;57.79
29825;BME280;16713;52.916;12.834;2023-04-26T08:18:30;100951.41;;;8.59;57.61
29825;BME280;16713;52.916;12.834;2023-04-26T08:20:56;100944.75;;;8.27;59.24
29825;BME280;16713;52.916;12.834;2023-04-26T08:23:24;100956.34;;;8.45;59.62
29825;BME280;16713;52.916;12.834;2023-04-26T08:25:50;100956.41;;;8.36;59.94
29825;BME280;16713;52.916;12.834;2023-04-26T08:28:17;100963.19;;;8.51;58.34
29825;BME280;16713;52.916;12.834;2023-04-26T08:30:43;100959.63;;;8.71;57.88
29825;BME280;16713;52.916;12.834;2023-04-26T08:33:10;100962.91;;;8.85;59.28
29825;BME280;16713;52.916;12.834;2023-04-26T08:35:36;100965.63;;;8.85;56.28
29825;BME280;16713;52.916;12.834;2023-04-26T08:38:03;100966.34;;;9.27;56.67
29825;BME280;16713;52.916;12.834;2023-04-26T08:40:29;100968.53;;;9.45;56.47
29825;BME280;16713;52.916;12.834;2023-04-26T08:42:56;100967.41;;;9.58;54.60
29825;BME280;16713;52.916;12.834;2023-04-26T08:45:23;100965.25;;;9.76;56.11
29825;BME280;16713;52.916;12.834;2023-04-26T08:47:52;100966.72;;;9.85;54.23
29825;BME280;16713;52.916;12.834;2023-04-26T08:50:22;100974.22;;;10.12;55.14
29825;BME280;16713;52.916;12.834;2023-04-26T08:52:50;100966.34;;;10.11;55.71
29825;BME280;16713;52.916;12.834;2023-04-26T08:55:18;100976.06;;;9.96;54.52
29825;BME280;16713;52.916;12.834;2023-04-26T08:57:49;100973.34;;;9.96;52.76
29825;BME280;16713;52.916;12.834;2023-04-26T09:00:16;100972.41;;;10.04;53.48
29825;BME280;16713;52.916;12.834;2023-04-26T09:02:51;100974.09;;;10.21;53.50
29825;BME280;16713;52.916;12.834;2023-04-26T09:05:20;100980.44;;;9.73;51.00
29825;BME280;16713;52.916;12.834;2023-04-26T09:07:51;100979.50;;;9.93;51.32
29825;BME280;16713;52.916;12.834;2023-04-26T09:10:19;100985.44;;;9.71;53.17
29825;BME280;16713;52.916;12.834;2023-04-26T09:12:51;100979.50;;;9.93;52.48
29825;BME280;16713;52.916;12.834;2023-04-26T09:15:19;100978.47;;;9.74;52.54
29825;BME280;16713;52.916;12.834;2023-04-26T09:17:46;100970.59;;;9.48;50.90
29825;BME280;16713;52.916;12.834;2023-04-26T09:22:52;100975.88;;;9.89;52.39
29825;BME280;16713;52.916;12.834;2023-04-26T09:25:29;100986.69;;;9.74;53.26
29825;BME280;16713;52.916;12.834;2023-04-26T09:27:57;100979.28;;;9.86;51.31
29825;BME280;16713;52.916;12.834;2023-04-26T09:30:24;100984.66;;;9.59;51.49
29825;BME280;16713;52.916;12.834;2023-04-26T09:38:00;100983.50;;;9.60;50.14
29825;BME280;16713;52.916;12.834;2023-04-26T09:40:44;100986.56;;;9.58;49.50
29825;BME280;16713;52.916;12.834;2023-04-26T09:43:16;100998.00;;;9.72;51.20
29825;BME280;16713;52.916;12.834;2023-04-26T09:45:44;101006.00;;;9.89;50.54
29825;BME280;16713;52.916;12.834;2023-04-26T09:48:31;101003.00;;;9.58;52.23
29825;BME280;16713;52.916;12.834;2023-04-26T09:53:32;101002.09;;;9.54;55.59
29825;BME280;16713;52.916;12.834;2023-04-26T10:01:13;100999.38;;;9.54;54.64
29825;BME280;16713;52.916;12.834;2023-04-26T10:03:40;100995.19;;;9.24;53.92
29825;BME280;16713;52.916;12.834;2023-04-26T10:06:08;100995.13;;;9.12;54.03
29825;BME280;16713;52.916;12.834;2023-04-26T10:08:35;100993.97;;;9.01;54.78
29825;BME280;16713;52.916;12.834;2023-04-26T10:11:05;101001.59;;;9.28;54.28
29825;BME280;16713;52.916;12.834;2023-04-26T10:13:39;101009.00;;;9.28;55.22
29825;BME280;16713;52.916;12.834;2023-04-26T10:16:07;101008.22;;;9.51;56.58
29825;BME280;16713;52.916;12.834;2023-04-26T10:18:35;100999.13;;;9.47;56.20
29825;BME280;16713;52.916;12.834;2023-04-26T10:21:21;100998.34;;;9.83;57.51
29825;BME280;16713;52.916;12.834;2023-04-26T10:23:51;100994.44;;;9.60;54.25
29825;BME280;16713;52.916;12.834;2023-04-26T10:26:53;100980.84;;;9.51;54.27
29825;BME280;16713;52.916;12.834;2023-04-26T10:29:30;101001.06;;;9.71;52.36
29825;BME280;16713;52.916;12.834;2023-04-26T10:32:11;100987.94;;;9.88;53.17
29825;BME280;16713;52.916;12.834;2023-04-26T10:34:42;100988.53;;;9.82;54.00
29825;BME280;16713;52.916;12.834;2023-04-26T10:37:10;100987.84;;;9.97;55.20
29825;BME280;16713;52.916;12.834;2023-04-26T10:39:44;100998.78;;;10.21;53.85
29825;BME280;16713;52.916;12.834;2023-04-26T10:42:25;100997.53;;;10.06;53.12
29825;BME280;16713;52.916;12.834;2023-04-26T10:44:54;100988.63;;;10.21;51.06
29825;BME280;16713;52.916;12.834;2023-04-26T10:47:33;101010.97;;;10.47;50.13
29825;BME280;16713;52.916;12.834;2023-04-26T10:50:02;100994.84;;;10.58;48.52
29825;BME280;16713;52.916;12.834;2023-04-26T10:52:31;101008.22;;;10.60;48.41
29825;BME280;16713;52.916;12.834;2023-04-26T10:54:59;100994.38;;;10.56;48.61
29825;BME280;16713;52.916;12.834;2023-04-26T10:57:58;101014.00;;;10.70;48.86
29825;BME280;16713;52.916;12.834;2023-04-26T11:00:25;101010.22;;;10.75;49.18
29825;BME280;16713;52.916;12.834;2023-04-26T11:03:04;101015.16;;;10.69;50.04
29825;BME280;16713;52.916;12.834;2023-04-26T11:05:36;101010.75;;;10.28;50.67
29825;BME280;16713;52.916;12.834;2023-04-26T11:08:14;101012.47;;;10.57;51.79
29825;BME280;16713;52.916;12.834;2023-04-26T11:10:42;101005.25;;;10.52;52.75
29825;BME280;16713;52.916;12.834;2023-04-26T11:13:08;101011.41;;;10.62;51.32
29825;BME280;16713;52.916;12.834;2023-04-26T11:15:35;101011.94;;;10.67;51.30
29825;BME280;16713;52.916;12.834;2023-04-26T11:18:02;101006.50;;;10.55;51.58
29825;BME280;16713;52.916;12.834;2023-04-26T11:20:31;101000.38;;;10.22;50.87
29825;BME280;16713;52.916;12.834;2023-04-26T11:22:58;101018.97;;;10.52;50.10
29825;BME280;16713;52.916;12.834;2023-04-26T11:25:26;101014.94;;;10.62;48.80
29825;BME280;16713;52.916;12.834;2023-04-26T11:27:59;101013.06;;;10.26;48.94
29825;BME280;16713;52.916;12.834;2023-04-26T11:30:30;101010.78;;;9.92;50.05
29825;BME280;16713;52.916;12.834;2023-04-26T11:32:58;101020.72;;;9.97;49.94
29825;BME280;16713;52.916;12.834;2023-04-26T11:35:26;101024.78;;;10.51;49.65
29825;BME280;16713;52.916;12.834;2023-04-26T11:37:57;101024.38;;;10.49;50.73
29825;BME280;16713;52.916;12.834;2023-04-26T11:40:29;101025.81;;;10.59;50.68
29825;BME280;16713;52.916;12.834;2023-04-26T11:43:06;101017.63;;;10.34;49.72
29825;BME280;16713;52.916;12.834;2023-04-26T11:45:35;101021.59;;;10.37;50.52
29825;BME280;16713;52.916;12.834;2023-04-26T11:48:03;101029.81;;;10.61;49.51
29825;BME280;16713;52.916;12.834;2023-04-26T11:50:32;101014.53;;;10.24;47.66
29825;BME280;16713;52.916;12.834;2023-04-26T11:53:01;101033.53;;;10.69;48.20
29825;BME280;16713;52.916;12.834;2023-04-26T11:55:30;101029.50;;;10.26;47.55
29825;BME280;16713;52.916;12.834;2023-04-26T11:57:58;101033.50;;;10.29;46.57
29825;BME280;16713;52.916;12.834;2023-04-26T12:00:25;101046.38;;;10.65;44.40
29825;BME280;16713;52.916;12.834;2023-04-26T12:02:52;101042.28;;;10.59;45.93
29825;BME280;16713;52.916;12.834;2023-04-26T12:05:28;101047.94;;;10.78;44.95
29825;BME280;16713;52.916;12.834;2023-04-26T12:07:59;101029.38;;;10.47;46.20
29825;BME280;16713;52.916;12.834;2023-04-26T12:10:28;101033.72;;;10.36;46.57
29825;BME280;16713;52.916;12.834;2023-04-26T12:12:58;101039.31;;;10.51;47.15
29825;BME280;16713;52.916;12.834;2023-04-26T12:15:28;101050.47;;;10.71;45.71
29825;BME280;16713;52.916;12.834;2023-04-26T12:18:04;101045.94;;;10.38;45.30
29825;BME280;16713;52.916;12.834;2023-04-26T12:20:33;101047.19;;;10.53;46.12
29825;BME280;16713;52.916;12.834;2023-04-26T12:23:08;101052.06;;;10.72;45.82
29825;BME280;16713;52.916;12.834;2023-04-26T12:25:37;101061.91;;;10.73;46.94
29825;BME280;16713;52.916;12.834;2023-04-26T12:28:05;101047.06;;;10.62;46.20
29825;BME280;16713;52.916;12.834;2023-04-26T12:30:33;101064.41;;;10.66;47.68
29825;BME280;16713;52.916;12.834;2023-04-26T12:33:00;101046.31;;;10.49;47.81
29825;BME280;16713;52.916;12.834;2023-04-26T12:35:42;101057.13;;;10.57;48.07
29825;BME280;16713;52.916;12.834;2023-04-26T12:38:09;101057.31;;;10.77;48.39
29825;BME280;16713;52.916;12.834;2023-04-26T12:40:36;101050.06;;;10.57;47.92
29825;BME280;16713;52.916;12.834;2023-04-26T12:43:03;101042.94;;;10.43;47.54
29825;BME280;16713;52.916;12.834;2023-04-26T12:45:29;101050.28;;;10.51;48.16
29825;BME280;16713;52.916;12.834;2023-04-26T12:47:56;101047.09;;;10.37;49.10
29825;BME280;16713;52.916;12.834;2023-04-26T12:50:22;101054.25;;;10.54;48.11
29825;BME280;16713;52.916;12.834;2023-04-26T12:52:49;101042.97;;;10.19;47.98
29825;BME280;16713;52.916;12.834;2023-04-26T12:55:16;101039.78;;;9.93;47.76
29825;BME280;16713;52.916;12.834;2023-04-26T12:57:43;101059.31;;;10.16;48.04
29825;BME280;16713;52.916;12.834;2023-04-26T13:00:12;101058.97;;;10.53;48.95
29825;BME280;16713;52.916;12.834;2023-04-26T13:02:39;101065.94;;;10.63;48.20
29825;BME280;16713;52.916;12.834;2023-04-26T13:05:07;101063.94;;;10.76;47.30
29825;BME280;16713;52.916;12.834;2023-04-26T13:07:34;101057.75;;;10.79;47.87